Time;durP1;ratioP1;P1;durP2;ratioP2;P2;SDS_P1;SDS_P2;PMS_P1;PMS_P2;Temp;Humidity;BMP_temperature;BMP_pressure;BME280_temperature;BME280_humidity;BME280_pressure;Samples;Min_cycle;Max_cycle;Signal;HPM_P1;HPM_P2
2023/02/19 00:01:42;;;;;;;0.50;0.50;;;8.30;99.90;;;;;;5039823;28;19920;-86
2023/02/19 00:04:13;;;;;;;0.52;0.52;;;8.40;99.90;;;;;;5044108;28;20045;-85
2023/02/19 00:06:39;;;;;;;0.50;0.50;;;8.30;99.90;;;;;;5020644;28;20052;-86
2023/02/19 00:09:05;;;;;;;;;;;8.30;99.90;;;;;;5046244;28;20453;-85
2023/02/19 00:11:33;;;;;;;0.60;0.60;;;8.30;99.90;;;;;;5035012;28;19917;-85
2023/02/19 00:14:00;;;;;;;0.60;0.60;;;8.30;99.90;;;;;;5036710;28;20111;-85
2023/02/19 00:16:35;;;;;;;0.40;0.40;;;8.40;99.90;;;;;;5043613;28;20071;-86
2023/02/19 00:19:02;;;;;;;0.50;0.50;;;8.30;99.90;;;;;;5001340;28;21416;-86
2023/02/19 00:21:30;;;;;;;0.98;0.98;;;8.30;99.90;;;;;;5028247;28;20041;-85
2023/02/19 00:23:58;;;;;;;0.40;0.40;;;8.30;99.90;;;;;;5019168;28;20490;-85
2023/02/19 00:26:24;;;;;;;0.40;0.40;;;8.30;99.90;;;;;;5024860;28;20791;-85
2023/02/19 00:28:52;;;;;;;0.40;0.40;;;8.30;99.90;;;;;;5008607;28;20049;-86
2023/02/19 00:31:24;;;;;;;0.40;0.40;;;8.30;99.90;;;;;;4989422;28;20491;-88
2023/02/19 00:33:52;;;;;;;0.50;0.50;;;8.30;99.90;;;;;;5013886;28;20167;-88
2023/02/19 00:36:18;;;;;;;0.40;0.40;;;8.30;99.90;;;;;;5065026;28;20131;-90
2023/02/19 00:38:44;;;;;;;;;;;8.20;99.90;;;;;;5034805;28;20060;-89
2023/02/19 00:41:18;;;;;;;0.40;0.40;;;8.30;99.90;;;;;;5051048;28;19924;-91
2023/02/19 00:43:55;;;;;;;0.40;0.40;;;8.30;99.90;;;;;;5057609;28;20072;-86
2023/02/19 00:46:30;;;;;;;0.45;0.45;;;8.20;99.90;;;;;;5054212;28;20052;-87
2023/02/19 00:48:57;;;;;;;4.95;1.48;;;8.30;99.90;;;;;;5024911;28;20044;-89
2023/02/19 00:51:26;;;;;;;0.50;0.50;;;8.30;99.90;;;;;;5036998;28;20095;-88
2023/02/19 00:53:52;;;;;;;0.55;0.55;;;8.30;99.90;;;;;;5031122;28;20123;-89
2023/02/19 00:56:18;;;;;;;0.38;0.38;;;8.30;99.90;;;;;;5056865;28;20040;-89
2023/02/19 00:58:44;;;;;;;0.50;0.50;;;8.30;99.90;;;;;;5032281;28;20093;-90
2023/02/19 01:01:10;;;;;;;0.52;0.52;;;8.20;99.90;;;;;;5016712;28;20044;-88
2023/02/19 01:03:37;;;;;;;0.40;0.40;;;8.20;99.90;;;;;;5022711;28;20293;-87
2023/02/19 01:06:05;;;;;;;0.40;0.40;;;8.20;99.90;;;;;;5013297;28;20053;-89
2023/02/19 01:08:31;;;;;;;0.50;0.50;;;8.30;99.90;;;;;;5055904;28;20084;-87
2023/02/19 01:10:58;;;;;;;0.43;0.43;;;8.20;99.90;;;;;;5019020;28;20051;-87
2023/02/19 01:13:24;;;;;;;0.60;0.60;;;8.30;99.90;;;;;;5046827;28;20037;-86
2023/02/19 01:15:50;;;;;;;0.45;0.45;;;8.20;99.90;;;;;;5011355;28;20038;-89
2023/02/19 01:18:15;;;;;;;0.68;0.68;;;8.20;99.90;;;;;;5030215;28;20152;-90
2023/02/19 01:20:43;;;;;;;0.47;0.47;;;8.20;99.90;;;;;;5017402;28;20856;-85
2023/02/19 01:23:11;;;;;;;0.43;0.43;;;8.30;99.90;;;;;;5051844;28;20048;-84
2023/02/19 01:25:42;;;;;;;0.55;0.55;;;8.20;99.90;;;;;;5038052;28;20506;-86
2023/02/19 01:28:10;;;;;;;0.50;0.50;;;8.20;99.90;;;;;;5050477;28;20462;-87
2023/02/19 01:30:37;;;;;;;0.73;0.73;;;8.20;99.90;;;;;;5051599;28;20706;-89
2023/02/19 01:33:07;;;;;;;0.40;0.40;;;7.80;99.90;;;;;;5030064;28;20048;-90
2023/02/19 01:35:36;;;;;;;0.45;0.45;;;7.40;99.90;;;;;;5021783;28;20083;-85
2023/02/19 01:38:02;;;;;;;0.57;0.57;;;7.10;99.90;;;;;;5066584;28;20025;-87
2023/02/19 01:40:28;;;;;;;0.63;0.63;;;7.40;99.90;;;;;;5049834;28;20116;-87
2023/02/19 01:42:54;;;;;;;0.52;0.52;;;6.60;99.90;;;;;;5053606;28;20037;-84
2023/02/19 01:45:27;;;;;;;0.50;0.50;;;6.50;99.90;;;;;;5028761;28;20044;-86
2023/02/19 01:48:00;;;;;;;0.60;0.60;;;6.50;99.90;;;;;;5032886;28;20513;-92
2023/02/19 01:50:28;;;;;;;0.60;0.60;;;6.40;99.90;;;;;;5034359;28;20041;-87
2023/02/19 01:52:54;;;;;;;0.52;0.52;;;6.40;99.90;;;;;;5035490;28;20102;-86
2023/02/19 01:55:21;;;;;;;0.43;0.43;;;6.30;99.90;;;;;;5028655;28;20033;-88
2023/02/19 01:57:52;;;;;;;0.60;0.60;;;6.40;99.90;;;;;;5030453;28;20105;-90
2023/02/19 02:00:18;;;;;;;0.60;0.60;;;6.50;99.90;;;;;;5037503;28;20071;-88
2023/02/19 02:02:49;;;;;;;0.50;0.50;;;6.50;99.90;;;;;;5052976;28;20051;-90
2023/02/19 02:05:44;;;;;;;0.52;0.52;;;6.20;99.90;;;;;;5045485;28;20032;-89
2023/02/19 02:10:57;;;;;;;;;;;6.30;99.90;;;;;;5048106;28;20041;-89
2023/02/19 02:13:23;;;;;;;0.40;0.40;;;6.00;99.90;;;;;;5042281;28;20330;-89
2023/02/19 02:16:00;;;;;;;0.45;0.45;;;6.60;99.90;;;;;;5033098;28;20045;-91
2023/02/19 02:18:57;;;;;;;0.60;0.60;;;6.00;99.90;;;;;;5065697;28;20045;-91
2023/02/19 02:21:28;;;;;;;0.60;0.60;;;6.00;99.90;;;;;;5052202;28;20125;-90
2023/02/19 02:24:16;;;;;;;0.50;0.50;;;5.90;99.90;;;;;;5060380;28;20037;-89
2023/02/19 02:26:56;;;;;;;0.40;0.40;;;5.90;99.90;;;;;;5059647;28;20048;-90
2023/02/19 02:29:29;;;;;;;0.57;0.57;;;5.80;99.90;;;;;;5051290;28;20146;-89
2023/02/19 02:32:09;;;;;;;0.50;0.50;;;5.90;99.90;;;;;;5046972;28;20126;-91
2023/02/19 02:34:46;;;;;;;0.55;0.55;;;5.90;99.90;;;;;;5056197;28;20063;-92
2023/02/19 02:37:14;;;;;;;0.40;0.40;;;5.90;99.90;;;;;;5025953;28;20041;-90
2023/02/19 02:39:41;;;;;;;0.50;0.50;;;5.90;99.90;;;;;;5031883;28;20044;-91
2023/02/19 02:47:49;;;;;;;0.50;0.50;;;5.90;99.90;;;;;;5036960;28;20052;-91
2023/02/19 02:50:22;;;;;;;0.43;0.43;;;6.20;99.90;;;;;;5038011;28;20098;-90
2023/02/19 02:55:42;;;;;;;0.50;0.50;;;5.80;99.90;;;;;;5048582;28;20071;-89
2023/02/19 02:58:09;;;;;;;0.50;0.50;;;6.30;99.90;;;;;;5034521;28;20036;-89
2023/02/19 03:02:09;;;;;;;0.50;0.50;;;6.00;99.90;;;;;;5021108;28;20047;-88
2023/02/19 03:03:25;;;;;;;0.40;0.40;;;5.70;99.90;;;;;;5040665;28;20049;-88
2023/02/19 03:05:55;;;;;;;0.60;0.60;;;5.80;99.90;;;;;;5045157;28;20041;-89
2023/02/19 03:08:33;;;;;;;0.50;0.50;;;5.80;99.90;;;;;;5051667;28;20060;-88
2023/02/19 03:19:27;;;;;;;0.50;0.50;;;5.90;99.90;;;;;;5035382;28;20045;-88
2023/02/19 03:22:01;;;;;;;0.70;0.70;;;6.00;99.90;;;;;;5034500;28;20044;-89
2023/02/19 03:27:18;;;;;;;0.40;0.40;;;5.90;99.90;;;;;;5064978;28;20076;-88
2023/02/19 03:29:46;;;;;;;0.50;0.50;;;6.00;99.90;;;;;;5074474;28;20029;-86
2023/02/19 03:32:46;;;;;;;0.50;0.50;;;5.80;99.90;;;;;;5067023;28;20029;-91
2023/02/19 03:35:21;;;;;;;0.50;0.50;;;5.80;99.90;;;;;;5063959;28;20084;-90
2023/02/19 03:38:19;;;;;;;0.52;0.52;;;6.20;99.90;;;;;;5021046;28;20048;-89
2023/02/19 03:40:55;;;;;;;0.60;0.60;;;5.70;99.90;;;;;;5019906;28;20052;-88
2023/02/19 03:43:25;;;;;;;0.60;0.60;;;5.80;99.90;;;;;;5029272;28;20081;-90
2023/02/19 03:46:22;;;;;;;0.50;0.50;;;5.60;99.90;;;;;;5033579;28;20041;-90
2023/02/19 03:49:15;;;;;;;0.40;0.40;;;5.50;99.90;;;;;;5024106;28;20071;-91
2023/02/19 03:51:47;;;;;;;0.50;0.50;;;5.60;99.90;;;;;;5062214;28;20331;-89
2023/02/19 03:54:42;;;;;;;0.60;0.60;;;5.50;99.90;;;;;;5034681;28;20074;-88
2023/02/19 03:57:32;;;;;;;0.60;0.60;;;5.70;99.90;;;;;;4990954;28;20104;-86
2023/02/19 04:00:19;;;;;;;0.40;0.40;;;5.90;99.90;;;;;;5022638;28;20075;-88
2023/02/19 04:03:00;;;;;;;0.57;0.57;;;5.50;99.90;;;;;;5048829;28;20040;-88
2023/02/19 04:05:30;;;;;;;0.50;0.50;;;5.50;99.90;;;;;;5027786;28;20182;-88
2023/02/19 04:08:06;;;;;;;0.52;0.52;;;5.40;99.90;;;;;;5049044;28;20102;-89
2023/02/19 04:10:37;;;;;;;0.60;0.60;;;5.70;99.90;;;;;;5045536;28;20041;-90
2023/02/19 04:13:29;;;;;;;0.50;0.50;;;5.40;99.90;;;;;;5055090;28;20032;-89
2023/02/19 04:16:00;;;;;;;0.68;0.68;;;5.40;99.90;;;;;;5033114;28;20033;-90
2023/02/19 04:18:31;;;;;;;0.50;0.50;;;5.50;99.90;;;;;;5044985;28;20055;-87
2023/02/19 04:20:58;;;;;;;0.50;0.50;;;5.60;99.90;;;;;;5046722;28;20048;-90
2023/02/19 04:23:27;;;;;;;0.50;0.50;;;5.40;99.90;;;;;;5047216;28;20037;-88
2023/02/19 04:25:58;;;;;;;0.47;0.47;;;5.30;99.90;;;;;;5067090;28;20355;-88
2023/02/19 04:28:24;;;;;;;0.52;0.52;;;5.40;99.90;;;;;;5048822;28;20037;-86
2023/02/19 04:30:50;;;;;;;0.57;0.57;;;5.40;99.90;;;;;;5055350;28;20037;-89
2023/02/19 04:33:16;;;;;;;0.50;0.50;;;5.80;99.90;;;;;;5052087;28;20078;-88
2023/02/19 04:35:44;;;;;;;0.57;0.57;;;6.30;99.90;;;;;;5048233;28;20106;-90
2023/02/19 04:38:11;;;;;;;0.70;0.70;;;5.40;99.90;;;;;;5030044;28;20557;-90
2023/02/19 04:40:36;;;;;;;0.60;0.60;;;5.60;99.90;;;;;;5016803;28;20090;-88
2023/02/19 04:43:02;;;;;;;0.60;0.60;;;5.40;99.90;;;;;;5033740;28;20171;-88
2023/02/19 04:45:29;;;;;;;0.55;0.55;;;5.80;99.90;;;;;;5033122;28;20124;-88
2023/02/19 04:48:00;;;;;;;0.60;0.60;;;5.40;99.90;;;;;;5006433;28;20070;-89
2023/02/19 04:50:26;;;;;;;0.60;0.60;;;5.50;99.90;;;;;;5010469;28;20101;-87
2023/02/19 04:52:52;;;;;;;0.70;0.70;;;5.20;99.90;;;;;;5050491;28;20059;-89
2023/02/19 04:55:17;;;;;;;0.70;0.70;;;5.60;99.90;;;;;;5027406;28;20049;-88
2023/02/19 04:57:43;;;;;;;0.60;0.60;;;5.60;99.90;;;;;;5017750;28;20041;-88
2023/02/19 05:00:10;;;;;;;0.70;0.70;;;5.40;99.90;;;;;;5034212;28;20390;-89
2023/02/19 05:02:35;;;;;;;0.50;0.50;;;5.10;99.90;;;;;;5050278;28;20047;-87
2023/02/19 05:05:01;;;;;;;0.70;0.70;;;4.90;99.90;;;;;;5014169;28;20037;-87
2023/02/19 05:07:27;;;;;;;0.50;0.50;;;5.40;99.90;;;;;;5024953;28;20040;-88
2023/02/19 05:09:52;;;;;;;0.57;0.57;;;4.80;99.90;;;;;;5024196;28;20562;-87
2023/02/19 05:12:18;;;;;;;0.50;0.50;;;5.30;99.90;;;;;;5032594;28;20033;-90
2023/02/19 05:14:44;;;;;;;0.60;0.60;;;5.10;99.90;;;;;;5030356;28;20036;-88
2023/02/19 05:17:09;;;;;;;0.60;0.60;;;5.00;99.90;;;;;;5067246;28;20052;-88
2023/02/19 05:19:35;;;;;;;0.57;0.57;;;5.10;99.90;;;;;;5033332;28;20486;-89
2023/02/19 05:22:01;;;;;;;0.40;0.40;;;4.70;99.90;;;;;;5027456;28;20037;-87
2023/02/19 05:24:27;;;;;;;0.70;0.70;;;5.20;99.90;;;;;;5029188;28;20037;-86
2023/02/19 05:26:52;;;;;;;;;;;5.10;99.90;;;;;;5031370;28;20174;-87
2023/02/19 05:29:18;;;;;;;0.50;0.50;;;5.00;99.90;;;;;;5059142;28;20460;-88
2023/02/19 05:31:44;;;;;;;0.50;0.50;;;5.40;99.90;;;;;;5033830;28;20040;-87
2023/02/19 05:34:09;;;;;;;0.65;0.65;;;5.10;99.90;;;;;;5059981;28;20130;-88
2023/02/19 05:36:38;;;;;;;0.60;0.60;;;5.10;99.90;;;;;;5058421;28;20040;-88
2023/02/19 05:39:06;;;;;;;0.63;0.63;;;5.20;99.90;;;;;;5037125;28;20533;-87
2023/02/19 05:41:32;;;;;;;0.50;0.50;;;4.60;99.90;;;;;;5055488;28;20049;-87
2023/02/19 05:43:57;;;;;;;0.60;0.60;;;4.80;99.90;;;;;;5015913;28;20048;-88
2023/02/19 05:46:28;;;;;;;0.50;0.50;;;5.30;99.90;;;;;;5045520;28;20124;-89
2023/02/19 05:48:54;;;;;;;0.50;0.50;;;5.30;99.90;;;;;;5043802;28;20053;-88
2023/02/19 05:51:22;;;;;;;0.50;0.50;;;4.80;99.90;;;;;;5035404;28;20045;-87
2023/02/19 05:53:48;;;;;;;0.52;0.52;;;5.00;99.90;;;;;;5057449;28;20381;-88
2023/02/19 05:56:29;;;;;;;0.68;0.68;;;4.70;99.90;;;;;;5045188;28;20115;-88
2023/02/19 05:58:56;;;;;;;0.50;0.50;;;4.60;99.90;;;;;;5057016;28;20157;-88
2023/02/19 06:01:24;;;;;;;0.55;0.55;;;5.30;99.90;;;;;;5048607;28;20178;-87
2023/02/19 06:03:50;;;;;;;0.65;0.65;;;5.20;99.90;;;;;;5048027;28;20545;-88
2023/02/19 06:06:17;;;;;;;0.60;0.60;;;5.20;99.90;;;;;;5055026;28;20061;-90
2023/02/19 06:08:43;;;;;;;0.60;0.60;;;5.30;99.90;;;;;;5026388;28;20503;-87
2023/02/19 06:11:09;;;;;;;0.50;0.50;;;5.50;99.90;;;;;;5027049;28;20080;-88
2023/02/19 06:13:35;;;;;;;;;;;4.70;99.90;;;;;;5037718;28;20360;-87
2023/02/19 06:16:05;;;;;;;0.60;0.60;;;4.80;99.90;;;;;;5051628;28;20011;-89
2023/02/19 06:18:31;;;;;;;0.70;0.70;;;4.60;99.90;;;;;;5028041;28;20043;-88
2023/02/19 06:21:00;;;;;;;;;;;4.90;99.90;;;;;;5020221;28;20540;-89
2023/02/19 06:23:27;;;;;;;0.70;0.70;;;4.60;99.90;;;;;;5009818;28;20308;-86
2023/02/19 06:25:53;;;;;;;0.50;0.50;;;5.10;99.90;;;;;;5060565;28;20041;-87
2023/02/19 06:28:19;;;;;;;0.50;0.50;;;4.80;99.90;;;;;;5052759;28;20710;-88
2023/02/19 06:30:44;;;;;;;0.60;0.60;;;5.20;99.90;;;;;;5017856;28;20051;-87
2023/02/19 06:33:10;;;;;;;;;;;5.30;99.90;;;;;;5047717;28;20044;-87
2023/02/19 06:35:36;;;;;;;0.60;0.60;;;4.70;99.90;;;;;;5046783;28;20389;-87
2023/02/19 06:38:02;;;;;;;0.60;0.60;;;4.90;99.90;;;;;;5006901;28;20207;-87
2023/02/19 06:40:28;;;;;;;0.60;0.60;;;5.30;99.90;;;;;;5047026;28;20395;-87
2023/02/19 06:42:55;;;;;;;0.65;0.65;;;4.70;99.90;;;;;;5028805;28;20044;-87
2023/02/19 06:45:21;;;;;;;0.60;0.60;;;4.50;99.90;;;;;;5022560;28;20895;-88
2023/02/19 06:47:46;;;;;;;0.70;0.70;;;5.10;99.90;;;;;;5046118;28;20048;-89
2023/02/19 06:50:13;;;;;;;0.52;0.52;;;4.60;99.90;;;;;;5043865;28;20532;-88
2023/02/19 06:52:39;;;;;;;0.60;0.60;;;4.70;99.90;;;;;;5026628;28;20033;-88
2023/02/19 06:55:04;;;;;;;0.50;0.50;;;5.00;99.90;;;;;;5019737;28;20175;-86
2023/02/19 06:57:33;;;;;;;0.60;0.60;;;5.10;99.90;;;;;;5050912;28;20066;-87
2023/02/19 06:59:59;;;;;;;0.50;0.50;;;4.80;99.90;;;;;;5048703;28;20067;-87
2023/02/19 07:02:25;;;;;;;0.57;0.57;;;4.50;99.90;;;;;;5035425;28;20036;-87
2023/02/19 07:04:50;;;;;;;0.60;0.60;;;5.00;99.90;;;;;;5021946;28;20121;-87
2023/02/19 07:07:16;;;;;;;0.70;0.70;;;5.00;99.90;;;;;;5016850;28;20044;-86
2023/02/19 07:09:42;;;;;;;0.68;0.68;;;4.50;99.90;;;;;;5032178;28;20376;-88
2023/02/19 07:12:08;;;;;;;0.60;0.60;;;5.70;99.90;;;;;;5048058;28;20082;-87
2023/02/19 07:14:34;;;;;;;0.60;0.60;;;4.60;99.90;;;;;;5059004;28;20044;-87
2023/02/19 07:17:00;;;;;;;0.65;0.65;;;4.70;99.90;;;;;;5020967;28;20482;-85
2023/02/19 07:19:26;;;;;;;0.60;0.60;;;4.60;99.90;;;;;;5036588;28;20041;-86
2023/02/19 07:21:51;;;;;;;0.63;0.63;;;4.60;99.90;;;;;;5012445;28;20045;-86
2023/02/19 07:24:20;;;;;;;0.63;0.63;;;4.50;99.90;;;;;;5020978;28;20048;-85
2023/02/19 07:26:46;;;;;;;0.60;0.60;;;4.80;99.90;;;;;;5021069;28;20045;-86
2023/02/19 07:29:11;;;;;;;0.70;0.70;;;4.90;99.90;;;;;;5047010;28;20044;-85
2023/02/19 07:31:37;;;;;;;0.60;0.60;;;4.70;99.90;;;;;;5047869;28;20037;-84
2023/02/19 07:34:03;;;;;;;0.65;0.65;;;4.80;99.90;;;;;;5043547;28;20390;-87
2023/02/19 07:36:29;;;;;;;0.60;0.60;;;4.40;99.90;;;;;;5031498;28;20120;-86
2023/02/19 07:38:56;;;;;;;0.60;0.60;;;4.60;99.90;;;;;;5042663;28;20068;-85
2023/02/19 07:41:23;;;;;;;0.50;0.50;;;4.80;99.90;;;;;;5035280;28;20118;-85
2023/02/19 07:43:49;;;;;;;0.60;0.60;;;4.30;99.90;;;;;;5037628;28;20061;-87
2023/02/19 07:46:14;;;;;;;0.55;0.55;;;4.50;99.90;;;;;;5025229;28;20466;-88
2023/02/19 07:48:41;;;;;;;0.70;0.70;;;2.70;99.90;;;;;;5012932;28;20531;-86
2023/02/19 07:51:10;;;;;;;0.50;0.50;;;4.20;99.90;;;;;;5048047;28;20551;-85
2023/02/19 07:53:36;;;;;;;0.70;0.70;;;4.10;99.90;;;;;;5045782;28;20041;-85
2023/02/19 07:56:04;;;;;;;0.50;0.50;;;4.20;99.90;;;;;;5035698;28;20502;-88
2023/02/19 07:58:31;;;;;;;0.60;0.60;;;4.20;99.90;;;;;;5046934;28;20036;-88
2023/02/19 08:01:05;;;;;;;0.50;0.50;;;4.50;99.90;;;;;;5004825;28;20095;-85
2023/02/19 08:03:31;;;;;;;0.50;0.50;;;4.30;99.90;;;;;;5034828;28;20045;-87
2023/02/19 08:05:56;;;;;;;0.60;0.60;;;4.40;99.90;;;;;;5048190;28;20041;-87
2023/02/19 08:08:24;;;;;;;0.60;0.60;;;4.90;99.90;;;;;;5042702;28;20057;-84
2023/02/19 08:13:35;;;;;;;0.50;0.50;;;4.20;99.90;;;;;;5065837;28;20585;-87
2023/02/19 08:16:01;;;;;;;0.50;0.50;;;5.10;99.90;;;;;;5049090;28;20045;-86
2023/02/19 08:18:28;;;;;;;0.60;0.60;;;4.80;99.90;;;;;;5038664;28;20414;-87
2023/02/19 08:20:56;;;;;;;0.63;0.63;;;4.30;99.90;;;;;;5066598;28;20209;-85
2023/02/19 08:23:22;;;;;;;0.45;0.45;;;4.30;99.90;;;;;;5026997;28;20092;-87
2023/02/19 08:25:50;;;;;;;0.50;0.50;;;5.00;99.90;;;;;;5023213;28;20032;-87
2023/02/19 08:28:16;;;;;;;0.60;0.60;;;4.70;99.90;;;;;;5014371;28;20045;-87
2023/02/19 08:30:44;;;;;;;0.60;0.60;;;4.50;99.90;;;;;;5032525;28;20099;-85
2023/02/19 08:33:12;;;;;;;0.63;0.63;;;5.00;99.90;;;;;;5048044;28;20395;-87
2023/02/19 08:35:40;;;;;;;0.60;0.60;;;5.00;99.90;;;;;;5024009;28;20069;-88
2023/02/19 08:38:06;;;;;;;0.40;0.40;;;4.70;99.90;;;;;;5046867;28;20047;-86
2023/02/19 08:40:33;;;;;;;0.50;0.50;;;4.90;99.90;;;;;;5023315;28;20044;-88
2023/02/19 08:43:10;;;;;;;0.63;0.63;;;5.00;99.90;;;;;;5051039;28;20417;-88
2023/02/19 08:45:37;;;;;;;0.50;0.50;;;5.20;99.90;;;;;;5026957;28;20461;-85
2023/02/19 08:48:04;;;;;;;0.60;0.60;;;5.50;99.90;;;;;;5036793;28;20440;-86
2023/02/19 08:50:29;;;;;;;0.60;0.60;;;5.00;99.90;;;;;;5043787;28;20033;-84
2023/02/19 08:52:57;;;;;;;0.50;0.50;;;5.30;99.90;;;;;;5024082;28;20052;-85
2023/02/19 08:55:23;;;;;;;0.70;0.70;;;5.20;99.90;;;;;;5042574;28;20096;-85
2023/02/19 08:57:48;;;;;;;0.40;0.40;;;6.40;99.90;;;;;;5030820;28;20119;-86
2023/02/19 09:00:14;;;;;;;0.50;0.50;;;5.40;99.90;;;;;;5011491;28;20052;-87
2023/02/19 09:02:40;;;;;;;0.60;0.60;;;5.40;99.90;;;;;;5058466;28;20037;-85
2023/02/19 09:05:06;;;;;;;0.50;0.50;;;6.20;99.90;;;;;;5016559;28;20036;-86
2023/02/19 09:07:32;;;;;;;0.70;0.70;;;5.60;99.90;;;;;;5033246;28;20044;-87
2023/02/19 09:09:58;;;;;;;0.50;0.50;;;5.30;99.90;;;;;;5051463;28;20080;-86
2023/02/19 09:12:24;;;;;;;0.68;0.68;;;5.50;99.90;;;;;;5033937;28;20041;-86
2023/02/19 09:14:50;;;;;;;0.70;0.70;;;5.50;99.90;;;;;;5030390;28;20052;-86
2023/02/19 09:17:15;;;;;;;0.55;0.55;;;5.50;99.90;;;;;;5036958;28;20044;-86
2023/02/19 09:19:41;;;;;;;0.55;0.55;;;5.60;99.90;;;;;;5047427;28;20052;-86
2023/02/19 09:22:08;;;;;;;0.70;0.70;;;5.90;99.90;;;;;;5027720;28;20045;-86
2023/02/19 09:24:33;;;;;;;0.60;0.60;;;6.00;99.90;;;;;;5051795;28;20088;-86
2023/02/19 09:26:59;;;;;;;0.60;0.60;;;5.80;99.90;;;;;;5057486;28;20432;-86
2023/02/19 09:29:26;;;;;;;0.60;0.60;;;5.80;99.90;;;;;;5044778;28;20068;-86
2023/02/19 09:31:59;;;;;;;0.52;0.52;;;6.00;99.90;;;;;;5033246;28;20042;-85
2023/02/19 09:34:26;;;;;;;0.60;0.60;;;6.40;99.90;;;;;;5025565;28;20032;-84
2023/02/19 09:36:52;;;;;;;0.47;0.47;;;6.40;99.90;;;;;;5032397;28;20067;-85
2023/02/19 09:39:18;;;;;;;0.60;0.60;;;6.10;99.90;;;;;;5047228;28;20045;-84
2023/02/19 09:41:47;;;;;;;0.50;0.50;;;6.40;99.90;;;;;;5046702;28;20123;-84
2023/02/19 09:44:22;;;;;;;0.50;0.50;;;6.30;99.90;;;;;;5046789;28;20045;-84
2023/02/19 09:46:50;;;;;;;0.50;0.50;;;6.00;99.90;;;;;;5042476;28;20049;-83
2023/02/19 09:49:27;;;;;;;0.50;0.50;;;6.10;99.90;;;;;;5026848;28;20045;-83
2023/02/19 09:52:13;;;;;;;0.43;0.43;;;6.10;99.90;;;;;;5043761;28;20075;-85
2023/02/19 09:54:41;;;;;;;0.50;0.50;;;6.30;99.90;;;;;;5034284;28;20103;-83
2023/02/19 09:57:14;;;;;;;0.70;0.70;;;6.60;99.90;;;;;;5033641;28;20040;-84
2023/02/19 10:00:18;;;;;;;0.60;0.60;;;6.50;99.90;;;;;;5049795;28;20059;-84
2023/02/19 10:02:44;;;;;;;0.70;0.70;;;6.80;99.90;;;;;;5015709;28;20049;-85
2023/02/19 10:05:14;;;;;;;0.60;0.60;;;6.90;99.90;;;;;;5034151;28;20191;-84
2023/02/19 10:07:44;;;;;;;0.47;0.47;;;6.80;99.90;;;;;;5033348;28;20252;-85
2023/02/19 10:10:12;;;;;;;0.55;0.55;;;6.70;99.90;;;;;;5050195;28;20142;-84
2023/02/19 10:12:45;;;;;;;0.50;0.50;;;7.20;99.90;;;;;;5062962;28;20186;-84
2023/02/19 10:15:17;;;;;;;0.60;0.60;;;7.00;99.90;;;;;;5048269;28;20396;-84
2023/02/19 10:17:43;;;;;;;0.40;0.40;;;7.40;99.90;;;;;;5061452;28;20131;-85
2023/02/19 10:20:14;;;;;;;0.60;0.60;;;7.10;99.90;;;;;;5057050;28;20084;-85
2023/02/19 10:22:40;;;;;;;0.60;0.60;;;7.10;99.90;;;;;;5048765;28;20123;-84
2023/02/19 10:25:06;;;;;;;0.40;0.40;;;7.00;99.90;;;;;;5019310;28;20601;-84
2023/02/19 10:27:32;;;;;;;;;;;7.20;99.90;;;;;;5031853;28;20025;-84
2023/02/19 10:29:59;;;;;;;0.47;0.47;;;7.00;99.90;;;;;;5032265;28;19920;-84
2023/02/19 10:32:28;;;;;;;0.50;0.50;;;7.70;99.90;;;;;;5023789;28;20049;-85
2023/02/19 10:35:08;;;;;;;0.55;0.55;;;7.20;99.90;;;;;;5032220;28;20040;-84
2023/02/19 10:37:35;;;;;;;0.60;0.60;;;6.60;99.90;;;;;;5031296;28;20088;-84
2023/02/19 10:40:01;;;;;;;1.10;1.00;;;6.90;99.90;;;;;;5033914;28;20049;-83
2023/02/19 10:42:27;;;;;;;;;;;6.50;99.90;;;;;;5029173;28;20036;-84
2023/02/19 10:45:00;;;;;;;0.50;0.50;;;6.90;99.90;;;;;;5031819;28;19920;-83
2023/02/19 10:47:30;;;;;;;0.60;0.60;;;6.80;99.90;;;;;;5029021;28;20048;-84
2023/02/19 10:49:58;;;;;;;0.70;0.70;;;7.00;99.90;;;;;;5053785;28;20032;-85
2023/02/19 10:52:30;;;;;;;0.90;0.90;;;7.00;99.90;;;;;;5067994;28;20082;-84
2023/02/19 10:55:14;;;;;;;1.08;1.08;;;7.20;99.90;;;;;;5046080;28;20441;-84
2023/02/19 10:57:40;;;;;;;0.52;0.52;;;7.50;99.90;;;;;;5034827;28;20045;-85
2023/02/19 11:00:15;;;;;;;0.63;0.63;;;7.80;99.90;;;;;;5005415;28;20502;-84
2023/02/19 11:02:43;;;;;;;0.50;0.50;;;7.40;99.90;;;;;;5022956;28;20488;-84
2023/02/19 11:05:08;;;;;;;0.57;0.57;;;7.80;99.90;;;;;;5032480;28;20482;-85
2023/02/19 11:07:43;;;;;;;0.50;0.50;;;8.40;99.90;;;;;;5048615;28;20112;-83
2023/02/19 11:10:20;;;;;;;0.50;0.50;;;8.10;99.90;;;;;;5049685;28;20053;-84
2023/02/19 11:12:48;;;;;;;0.43;0.43;;;7.60;99.90;;;;;;5042162;28;20063;-83
2023/02/19 11:15:31;;;;;;;0.50;0.50;;;8.40;99.90;;;;;;5045592;28;20052;-84
2023/02/19 11:18:21;;;;;;;0.57;0.57;;;7.40;99.90;;;;;;5045397;28;20061;-84
2023/02/19 11:20:57;;;;;;;0.50;0.50;;;7.70;99.90;;;;;;5050355;28;20124;-84
2023/02/19 11:23:32;;;;;;;0.50;0.50;;;7.30;99.90;;;;;;5046177;28;20479;-83
2023/02/19 11:26:06;;;;;;;0.50;0.50;;;7.20;99.90;;;;;;5047953;28;20041;-84
2023/02/19 11:28:33;;;;;;;0.57;0.57;;;6.80;99.90;;;;;;5027462;28;20037;-84
2023/02/19 11:31:26;;;;;;;0.60;0.60;;;7.30;99.90;;;;;;5042747;28;20107;-83
2023/02/19 11:34:01;;;;;;;0.30;0.30;;;7.40;99.90;;;;;;5025730;28;20132;-83
2023/02/19 11:36:35;;;;;;;0.60;0.60;;;7.80;99.90;;;;;;5059281;28;20394;-85
2023/02/19 11:39:14;;;;;;;0.40;0.40;;;8.00;99.90;;;;;;5032821;28;20080;-83
2023/02/19 11:42:01;;;;;;;0.50;0.50;;;8.30;99.90;;;;;;5017586;28;20069;-84
2023/02/19 11:45:01;;;;;;;0.50;0.50;;;8.60;99.90;;;;;;5043591;28;20046;-84
2023/02/19 11:47:30;;;;;;;1.75;1.08;;;8.60;99.90;;;;;;5044906;28;20048;-83
2023/02/19 11:50:23;;;;;;;0.45;0.45;;;8.50;99.90;;;;;;5041253;28;20371;-85
2023/02/19 11:52:52;;;;;;;0.40;0.40;;;8.30;99.90;;;;;;5022493;28;20037;-85
2023/02/19 11:55:34;;;;;;;0.50;0.50;;;8.30;99.90;;;;;;5045386;28;20047;-83
2023/02/19 11:58:21;;;;;;;0.50;0.50;;;8.10;99.90;;;;;;5025069;28;20051;-83
2023/02/19 12:00:54;;;;;;;;;;;8.00;99.90;;;;;;5043962;28;20048;-85
2023/02/19 12:03:32;;;;;;;0.40;0.40;;;8.00;99.90;;;;;;5043701;28;19967;-84
2023/02/19 12:06:04;;;;;;;0.50;0.50;;;8.30;99.90;;;;;;5039408;28;20029;-84
2023/02/19 12:09:03;;;;;;;0.40;0.40;;;7.90;99.90;;;;;;5030204;28;20509;-82
2023/02/19 12:11:54;;;;;;;0.50;0.50;;;8.30;99.90;;;;;;5054375;28;20147;-85
2023/02/19 12:14:49;;;;;;;0.55;0.55;;;8.10;99.90;;;;;;5049480;28;20075;-82
2023/02/19 12:17:47;;;;;;;0.60;0.60;;;8.40;99.90;;;;;;5044707;28;20164;-84
2023/02/19 12:20:25;;;;;;;0.50;0.50;;;8.60;99.90;;;;;;5021315;28;20072;-83
2023/02/19 12:23:15;;;;;;;0.50;0.50;;;8.90;99.90;;;;;;5043035;28;20449;-83
2023/02/19 12:25:53;;;;;;;0.38;0.38;;;9.00;99.90;;;;;;5040217;28;20045;-84
2023/02/19 12:28:34;;;;;;;0.43;0.43;;;9.00;99.90;;;;;;5044970;28;20077;-83
2023/02/19 12:31:11;;;;;;;0.55;0.55;;;8.90;99.90;;;;;;5031449;28;20401;-82
2023/02/19 12:33:56;;;;;;;0.47;0.47;;;8.60;99.90;;;;;;5024192;28;20051;-82
2023/02/19 12:36:25;;;;;;;0.60;0.60;;;8.50;99.90;;;;;;5037700;28;20045;-84
2023/02/19 12:38:59;;;;;;;0.50;0.50;;;8.50;99.90;;;;;;5052652;28;20386;-84
2023/02/19 12:42:01;;;;;;;0.85;0.85;;;8.30;99.90;;;;;;5032241;28;20049;-83
2023/02/19 12:44:52;;;;;;;0.55;0.55;;;8.50;99.90;;;;;;5059710;28;20049;-84
2023/02/19 12:47:23;;;;;;;0.40;0.40;;;8.30;99.90;;;;;;5051131;28;20045;-83
2023/02/19 12:50:13;;;;;;;0.50;0.50;;;8.20;99.90;;;;;;5050844;28;20045;-83
2023/02/19 12:52:44;;;;;;;0.50;0.50;;;8.70;99.90;;;;;;5022309;28;20030;-82
2023/02/19 12:55:20;;;;;;;0.40;0.40;;;8.40;99.90;;;;;;5048602;28;20573;-83
2023/02/19 12:57:46;;;;;;;0.40;0.40;;;8.50;99.90;;;;;;5044477;28;20313;-83
2023/02/19 13:00:21;;;;;;;;;;;8.50;99.90;;;;;;5046882;28;20083;-83
2023/02/19 13:02:59;;;;;;;0.50;0.50;;;9.30;99.90;;;;;;5034178;28;19924;-83
2023/02/19 13:05:24;;;;;;;0.40;0.40;;;9.00;99.90;;;;;;5052646;28;20045;-83
2023/02/19 13:08:03;;;;;;;0.50;0.50;;;8.70;99.90;;;;;;5045965;28;20041;-83
2023/02/19 13:10:45;;;;;;;0.40;0.40;;;8.60;99.90;;;;;;5031912;28;20072;-83
2023/02/19 13:13:51;;;;;;;0.47;0.47;;;8.60;99.90;;;;;;5051037;28;20045;-83
2023/02/19 13:16:19;;;;;;;0.52;0.52;;;8.30;99.90;;;;;;5044394;28;20379;-83
2023/02/19 13:18:55;;;;;;;0.50;0.50;;;8.50;99.90;;;;;;5049024;28;20238;-84
2023/02/19 13:24:31;;;;;;;0.40;0.40;;;8.30;99.90;;;;;;5046606;28;20091;-83
2023/02/19 13:27:29;;;;;;;0.60;0.60;;;8.30;99.90;;;;;;5048609;28;20057;-83
2023/02/19 13:30:10;;;;;;;0.52;0.52;;;8.30;99.90;;;;;;5045609;28;20044;-84
2023/02/19 13:32:47;;;;;;;0.52;0.52;;;8.20;99.90;;;;;;5036672;28;20079;-83
2023/02/19 13:35:25;;;;;;;0.50;0.50;;;8.40;99.90;;;;;;5044104;28;20103;-83
2023/02/19 13:37:53;;;;;;;2.58;0.60;;;8.60;99.90;;;;;;5046231;28;20120;-83
2023/02/19 13:40:38;;;;;;;1.02;1.02;;;8.70;99.90;;;;;;5041404;28;20041;-83
2023/02/19 13:43:27;;;;;;;0.50;0.50;;;8.80;99.90;;;;;;5040512;28;20052;-80
2023/02/19 13:45:58;;;;;;;0.40;0.40;;;8.60;99.90;;;;;;5044883;28;20390;-82
2023/02/19 13:48:26;;;;;;;0.40;0.40;;;8.70;99.90;;;;;;5045358;28;20052;-80
2023/02/19 13:51:23;;;;;;;0.55;0.55;;;8.70;99.90;;;;;;5045119;28;20041;-80